Nrc Patriot II — WDA8587 — position and weather

sailwx.info

Track history (hours):
 
Tides and Currents Weather Stations Pressure Air Temp Water Temp Dewpoint Dewpoint Depression Visibility Wind Speed Wind Dir Waves Ship Positions

Nrc Patriot II

Owner: National Response Corporation, HOUSTON, TX. More information available from US FCC via Universal Licensing System and Coast Guard Vessel Documentation Center.

Last reported at 2014-Nov-27 04:33 UTC. Time now 2014-Nov-27 05:35 UTC.
Position N 33°44' W 118°16'.

Length 30 m; draft 3.5 m.

Type: Port tender. MMSI: 366855940.

Date/timePositionNaut miles runAvg speedWind from/ knotsBaromVisibWave heightAir tempDewpointWater temp
2014-Nov-27 04:33N 33°44' W 118°16'0 0.1
2014-Nov-27 03:33N 33°44' W 118°16'0 0.0
2014-Nov-27 02:27N 33°44' W 118°16'5 2.2
2014-Nov-27 00:15N 33°44' W 118°10'5 7.8
2014-Nov-26 23:33N 33°41' W 118°05'2 1.7
2014-Nov-26 22:17N 33°40' W 118°03'0 0.0
2014-Nov-26 21:28N 33°40' W 118°03'0 0.1
2014-Nov-26 20:33N 33°40' W 118°03'0 0.2
2014-Nov-26 19:33N 33°40' W 118°02'0 0.2
2014-Nov-26 18:33N 33°40' W 118°03'8 7.8
2014-Nov-26 17:33N 33°44' W 118°11'5 4.6
2014-Nov-26 16:33N 33°44' W 118°16'0 0.0
2014-Nov-26 15:33N 33°44' W 118°16'1 1.2
2014-Nov-26 14:33N 33°43' W 118°16'9 8.8
2014-Nov-26 13:33N 33°39' W 118°06'3 2.9
2014-Nov-26 12:33N 33°40' W 118°03'0 0.1
2014-Nov-26 11:33N 33°40' W 118°03'0 0.1
2014-Nov-26 10:33N 33°40' W 118°03'0 0.1
2014-Nov-26 09:31N 33°40' W 118°03'0 0.1
2014-Nov-26 08:32N 33°40' W 118°03'0 0.0
2014-Nov-26 07:33N 33°40' W 118°03'0 0.0
2014-Nov-26 06:34N 33°40' W 118°03'0 0.1
2014-Nov-26 05:33N 33°40' W 118°03'4 2.8
2014-Nov-26 04:14N 33°40' W 118°07'6 8.8
2014-Nov-26 03:33N 33°42' W 118°14'3 1.0
2014-Nov-26 00:29N 33°44' W 118°11'8 8.7
2014-Nov-25 23:33N 33°40' W 118°03'0 0.1
2014-Nov-25 22:32N 33°40' W 118°03'0 0.0
2014-Nov-25 20:07N 33°40' W 118°03'10 3.8
2014-Nov-25 17:32N 33°41' W 118°14'10 1.9
2014-Nov-25 12:19N 33°40' W 118°03'0 0.0
2014-Nov-25 11:33N 33°40' W 118°03'0 0.0
2014-Nov-25 10:33N 33°40' W 118°03'0 0.0
2014-Nov-25 09:33N 33°40' W 118°03'0 0.0
2014-Nov-25 08:33N 33°40' W 118°03'0 0.0
2014-Nov-25 07:22N 33°40' W 118°03'0 0.1
2014-Nov-25 06:28N 33°40' W 118°03'8 3.4
2014-Nov-25 04:08N 33°40' W 118°12'4 1.0
2014-Nov-25 00:32N 33°44' W 118°11'8 8.2
2014-Nov-24 23:33N 33°40' W 118°03'0 0.0
2014-Nov-24 22:33N 33°40' W 118°03'7 7.0
2014-Nov-24 21:33N 33°44' W 118°09'6 5.7
2014-Nov-24 20:33N 33°44' W 118°16'0 0.0
2014-Nov-24 19:14N 33°44' W 118°16'0 0.0
2014-Nov-24 18:30N 33°44' W 118°16'0 0.0
2014-Nov-24 17:33N 33°44' W 118°16'0 0.0
2014-Nov-24 16:33N 33°44' W 118°16'0 0.0
2014-Nov-24 15:33N 33°44' W 118°16'0 0.1
2014-Nov-24 14:33N 33°44' W 118°16'7 6.6
2014-Nov-24 13:33N 33°42' W 118°09'6 5.5
2014-Nov-24 12:33N 33°40' W 118°03'0 0.0
2014-Nov-24 11:33N 33°40' W 118°03'0 0.0
2014-Nov-24 10:34N 33°40' W 118°03'0 0.0
2014-Nov-24 09:33N 33°40' W 118°03'0 0.0
2014-Nov-24 08:33N 33°40' W 118°03'0 0.0
2014-Nov-24 07:33N 33°40' W 118°03'0 0.0
2014-Nov-24 06:33N 33°40' W 118°03'7 3.7
2014-Nov-24 04:33N 33°43' W 118°11'5 3.7
2014-Nov-24 03:15N 33°44' W 118°16'7 3.9
2014-Nov-24 01:34N 33°42' W 118°09'6 5.5
2014-Nov-24 00:33N 33°40' W 118°03'0 0.1
2014-Nov-23 23:34N 33°40' W 118°03'0 0.1
2014-Nov-23 22:33N 33°40' W 118°03'0 0.1
2014-Nov-23 21:33N 33°40' W 118°03'0 0.0
2014-Nov-23 20:33N 33°40' W 118°03'0 0.0
2014-Nov-23 19:34N 33°40' W 118°03'0 0.0
2014-Nov-23 18:33N 33°40' W 118°03'8 7.8
2014-Nov-23 17:33N 33°40' W 118°12'5 0.4
2014-Nov-23 03:33N 33°44' W 118°16'0 0.0
2014-Nov-23 02:25N 33°44' W 118°16'5 6.0
2014-Nov-23 01:34N 33°43' W 118°10'7 6.9
2014-Nov-23 00:33N 33°40' W 118°03'0 0.1
2014-Nov-22 23:33N 33°40' W 118°03'0 0.1
2014-Nov-22 22:34N 33°40' W 118°03'0 0.0
2014-Nov-22 21:33N 33°40' W 118°03'12 4.0
2014-Nov-22 18:32N 33°44' W 118°16'12 1.9
2014-Nov-22 12:08N 33°40' W 118°03'0 0.1
2014-Nov-22 11:32N 33°40' W 118°03'0 0.0
2014-Nov-22 10:33N 33°40' W 118°03'2 0.6
2014-Nov-22 06:33N 33°41' W 118°05'10 0.9
2014-Nov-21 19:10N 33°44' W 118°16'0 0.0
2014-Nov-21 18:23N 33°44' W 118°16'0 0.0
2014-Nov-21 17:33N 33°44' W 118°16'4 1.0
2014-Nov-21 13:30N 33°44' W 118°11'4 0.4
2014-Nov-21 03:31N 33°44' W 118°16'0 0.0
2014-Nov-20 18:16N 33°44' W 118°16'0 0.0
2014-Nov-20 17:32N 33°44' W 118°16'0 0.0
2014-Nov-20 15:31N 33°44' W 118°16'12 1.7
2014-Nov-20 08:26N 33°40' W 118°03'0 0.0
2014-Nov-20 07:23N 33°40' W 118°03'5 5.1
2014-Nov-20 06:30N 33°42' W 118°08'8 6.3
2014-Nov-20 05:18N 33°44' W 118°16'0 0.0
2014-Nov-20 04:33N 33°44' W 118°16'0 0.0
2014-Nov-20 03:33N 33°44' W 118°16'0 0.0
2014-Nov-20 02:33N 33°44' W 118°16'2 2.3
2014-Nov-20 01:33N 33°43' W 118°14'8 7.8
2014-Nov-20 00:34N 33°41' W 118°05'2 2.0
2014-Nov-19 23:33N 33°40' W 118°03'0 0.1
2014-Nov-19 22:33N 33°40' W 118°03'0 0.0
2014-Nov-19 21:33N 33°40' W 118°03'0 0.0
2014-Nov-19 20:32N 33°40' W 118°03'0 0.1
2014-Nov-19 19:29N 33°40' W 118°03'8 5.9
2014-Nov-19 18:03N 33°41' W 118°13'4 7.5
2014-Nov-19 17:33N 33°43' W 118°16'1 0.5
2014-Nov-19 15:31N 33°44' W 118°16'4 1.8
2014-Nov-19 13:30N 33°44' W 118°12'9 6.4
2014-Nov-19 12:10N 33°40' W 118°03'0 0.2
2014-Nov-19 11:33N 33°40' W 118°03'0 0.1
2014-Nov-19 10:33N 33°40' W 118°03'0 0.1
2014-Nov-19 09:33N 33°40' W 118°03'0 0.0
2014-Nov-19 08:33N 33°40' W 118°03'0 0.1
2014-Nov-19 07:33N 33°40' W 118°03'0 0.1
2014-Nov-19 06:33N 33°40' W 118°03'0 0.1
2014-Nov-19 05:33N 33°40' W 118°03'6 6.3
2014-Nov-19 04:33N 33°43' W 118°09'6 5.9
2014-Nov-19 03:33N 33°44' W 118°16'5 4.9
2014-Nov-19 02:33N 33°41' W 118°12'8 7.9
2014-Nov-19 01:33N 33°40' W 118°03'0 0.1
2014-Nov-19 00:33N 33°40' W 118°03'0 0.1
2014-Nov-18 23:34N 33°40' W 118°03'0 0.0
2014-Nov-18 22:33N 33°40' W 118°03'0 0.1
2014-Nov-18 21:33N 33°40' W 118°03'0 0.0
2014-Nov-18 20:34N 33°40' W 118°03'0 0.1
2014-Nov-18 19:31N 33°40' W 118°03'0 0.0
2014-Nov-18 18:34N 33°40' W 118°03'0 0.0
2014-Nov-18 17:34N 33°40' W 118°03'7 6.8
2014-Nov-18 16:33N 33°43' W 118°10'5 5.3
2014-Nov-18 15:34N 33°44' W 118°16'0 0.0
2014-Nov-18 14:33N 33°44' W 118°16'9 8.2
2014-Nov-18 13:25N 33°41' W 118°06'3 3.2
2014-Nov-18 12:33N 33°40' W 118°03'0 0.1
2014-Nov-18 11:33N 33°40' W 118°03'0 0.0
2014-Nov-18 10:33N 33°40' W 118°03'0 0.0
2014-Nov-18 09:33N 33°40' W 118°03'0 0.1
2014-Nov-18 08:33N 33°40' W 118°03'4 3.5
2014-Nov-18 07:33N 33°41' W 118°07'9 8.5
2014-Nov-18 06:33N 33°44' W 118°16'0 0.1
2014-Nov-18 05:34N 33°44' W 118°16'0 0.1
2014-Nov-18 04:33N 33°44' W 118°16'0 0.0
2014-Nov-18 03:34N 33°44' W 118°16'0 0.0
2014-Nov-18 02:33N 33°44' W 118°16'0 0.0
2014-Nov-18 01:34N 33°44' W 118°16'0 0.1
2014-Nov-18 00:31N 33°44' W 118°16'0 0.0
2014-Nov-17 23:33N 33°44' W 118°16'1 0.7
2014-Nov-17 22:18N 33°43' W 118°16'7 8.9
2014-Nov-17 21:33N 33°40' W 118°09'5 5.2
2014-Nov-17 20:32N 33°40' W 118°03'0 0.0
2014-Nov-17 19:33N 33°40' W 118°03'0 0.0
2014-Nov-17 18:33N 33°40' W 118°03'0 0.1
2014-Nov-17 17:33N 33°40' W 118°03'  
Track history (hours):
 
Tides and Currents Weather Stations Pressure Air Temp Water Temp Dewpoint Dewpoint Depression Visibility Wind Speed Wind Dir Waves Ship Positions

Nrc Patriot II

Owner: National Response Corporation, HOUSTON, TX. More information available from US FCC via Universal Licensing System and Coast Guard Vessel Documentation Center.

Last reported at 2014-Nov-27 04:33 UTC. Time now 2014-Nov-27 05:35 UTC.
Position N 33°44' W 118°16'.

Length 30 m; draft 3.5 m.

Type: Port tender. MMSI: 366855940.

Date/timePositionNaut miles runAvg speedWind from/ knotsBaromVisibWave heightAir tempDewpointWater temp
2014-Nov-27 04:33N 33°44' W 118°16'0 0.1
2014-Nov-27 03:33N 33°44' W 118°16'0 0.0
2014-Nov-27 02:27N 33°44' W 118°16'5 2.2
2014-Nov-27 00:15N 33°44' W 118°10'5 7.8
2014-Nov-26 23:33N 33°41' W 118°05'2 1.7
2014-Nov-26 22:17N 33°40' W 118°03'0 0.0
2014-Nov-26 21:28N 33°40' W 118°03'0 0.1
2014-Nov-26 20:33N 33°40' W 118°03'0 0.2
2014-Nov-26 19:33N 33°40' W 118°02'0 0.2
2014-Nov-26 18:33N 33°40' W 118°03'8 7.8
2014-Nov-26 17:33N 33°44' W 118°11'5 4.6
2014-Nov-26 16:33N 33°44' W 118°16'0 0.0
2014-Nov-26 15:33N 33°44' W 118°16'1 1.2
2014-Nov-26 14:33N 33°43' W 118°16'9 8.8
2014-Nov-26 13:33N 33°39' W 118°06'3 2.9
2014-Nov-26 12:33N 33°40' W 118°03'0 0.1
2014-Nov-26 11:33N 33°40' W 118°03'0 0.1
2014-Nov-26 10:33N 33°40' W 118°03'0 0.1
2014-Nov-26 09:31N 33°40' W 118°03'0 0.1
2014-Nov-26 08:32N 33°40' W 118°03'0 0.0
2014-Nov-26 07:33N 33°40' W 118°03'0 0.0
2014-Nov-26 06:34N 33°40' W 118°03'0 0.1
2014-Nov-26 05:33N 33°40' W 118°03'4 2.8
2014-Nov-26 04:14N 33°40' W 118°07'6 8.8
2014-Nov-26 03:33N 33°42' W 118°14'3 1.0
2014-Nov-26 00:29N 33°44' W 118°11'8 8.7
2014-Nov-25 23:33N 33°40' W 118°03'0 0.1
2014-Nov-25 22:32N 33°40' W 118°03'0 0.0
2014-Nov-25 20:07N 33°40' W 118°03'10 3.8
2014-Nov-25 17:32N 33°41' W 118°14'10 1.9
2014-Nov-25 12:19N 33°40' W 118°03'0 0.0
2014-Nov-25 11:33N 33°40' W 118°03'0 0.0
2014-Nov-25 10:33N 33°40' W 118°03'0 0.0
2014-Nov-25 09:33N 33°40' W 118°03'0 0.0
2014-Nov-25 08:33N 33°40' W 118°03'0 0.0
2014-Nov-25 07:22N 33°40' W 118°03'0 0.1
2014-Nov-25 06:28N 33°40' W 118°03'8 3.4
2014-Nov-25 04:08N 33°40' W 118°12'4 1.0
2014-Nov-25 00:32N 33°44' W 118°11'8 8.2
2014-Nov-24 23:33N 33°40' W 118°03'0 0.0
2014-Nov-24 22:33N 33°40' W 118°03'7 7.0
2014-Nov-24 21:33N 33°44' W 118°09'6 5.7
2014-Nov-24 20:33N 33°44' W 118°16'0 0.0
2014-Nov-24 19:14N 33°44' W 118°16'0 0.0
2014-Nov-24 18:30N 33°44' W 118°16'0 0.0
2014-Nov-24 17:33N 33°44' W 118°16'0 0.0
2014-Nov-24 16:33N 33°44' W 118°16'0 0.0
2014-Nov-24 15:33N 33°44' W 118°16'0 0.1
2014-Nov-24 14:33N 33°44' W 118°16'7 6.6
2014-Nov-24 13:33N 33°42' W 118°09'6 5.5
2014-Nov-24 12:33N 33°40' W 118°03'0 0.0
2014-Nov-24 11:33N 33°40' W 118°03'0 0.0
2014-Nov-24 10:34N 33°40' W 118°03'0 0.0
2014-Nov-24 09:33N 33°40' W 118°03'0 0.0
2014-Nov-24 08:33N 33°40' W 118°03'0 0.0
2014-Nov-24 07:33N 33°40' W 118°03'0 0.0
2014-Nov-24 06:33N 33°40' W 118°03'7 3.7
2014-Nov-24 04:33N 33°43' W 118°11'5 3.7
2014-Nov-24 03:15N 33°44' W 118°16'7 3.9
2014-Nov-24 01:34N 33°42' W 118°09'6 5.5
2014-Nov-24 00:33N 33°40' W 118°03'0 0.1
2014-Nov-23 23:34N 33°40' W 118°03'0 0.1
2014-Nov-23 22:33N 33°40' W 118°03'0 0.1
2014-Nov-23 21:33N 33°40' W 118°03'0 0.0
2014-Nov-23 20:33N 33°40' W 118°03'0 0.0
2014-Nov-23 19:34N 33°40' W 118°03'0 0.0
2014-Nov-23 18:33N 33°40' W 118°03'8 7.8
2014-Nov-23 17:33N 33°40' W 118°12'5 0.4
2014-Nov-23 03:33N 33°44' W 118°16'0 0.0
2014-Nov-23 02:25N 33°44' W 118°16'5 6.0
2014-Nov-23 01:34N 33°43' W 118°10'7 6.9
2014-Nov-23 00:33N 33°40' W 118°03'0 0.1
2014-Nov-22 23:33N 33°40' W 118°03'0 0.1
2014-Nov-22 22:34N 33°40' W 118°03'0 0.0
2014-Nov-22 21:33N 33°40' W 118°03'12 4.0
2014-Nov-22 18:32N 33°44' W 118°16'12 1.9
2014-Nov-22 12:08N 33°40' W 118°03'0 0.1
2014-Nov-22 11:32N 33°40' W 118°03'0 0.0
2014-Nov-22 10:33N 33°40' W 118°03'2 0.6
2014-Nov-22 06:33N 33°41' W 118°05'10 0.9
2014-Nov-21 19:10N 33°44' W 118°16'0 0.0
2014-Nov-21 18:23N 33°44' W 118°16'0 0.0
2014-Nov-21 17:33N 33°44' W 118°16'4 1.0
2014-Nov-21 13:30N 33°44' W 118°11'4 0.4
2014-Nov-21 03:31N 33°44' W 118°16'0 0.0
2014-Nov-20 18:16N 33°44' W 118°16'0 0.0
2014-Nov-20 17:32N 33°44' W 118°16'0 0.0
2014-Nov-20 15:31N 33°44' W 118°16'12 1.7
2014-Nov-20 08:26N 33°40' W 118°03'0 0.0
2014-Nov-20 07:23N 33°40' W 118°03'5 5.1
2014-Nov-20 06:30N 33°42' W 118°08'8 6.3
2014-Nov-20 05:18N 33°44' W 118°16'0 0.0
2014-Nov-20 04:33N 33°44' W 118°16'0 0.0
2014-Nov-20 03:33N 33°44' W 118°16'0 0.0
2014-Nov-20 02:33N 33°44' W 118°16'2 2.3
2014-Nov-20 01:33N 33°43' W 118°14'8 7.8
2014-Nov-20 00:34N 33°41' W 118°05'2 2.0
2014-Nov-19 23:33N 33°40' W 118°03'0 0.1
2014-Nov-19 22:33N 33°40' W 118°03'0 0.0
2014-Nov-19 21:33N 33°40' W 118°03'0 0.0
2014-Nov-19 20:32N 33°40' W 118°03'0 0.1
2014-Nov-19 19:29N 33°40' W 118°03'8 5.9
2014-Nov-19 18:03N 33°41' W 118°13'4 7.5
2014-Nov-19 17:33N 33°43' W 118°16'1 0.5
2014-Nov-19 15:31N 33°44' W 118°16'4 1.8
2014-Nov-19 13:30N 33°44' W 118°12'9 6.4
2014-Nov-19 12:10N 33°40' W 118°03'0 0.2
2014-Nov-19 11:33N 33°40' W 118°03'0 0.1
2014-Nov-19 10:33N 33°40' W 118°03'0 0.1
2014-Nov-19 09:33N 33°40' W 118°03'0 0.0
2014-Nov-19 08:33N 33°40' W 118°03'0 0.1
2014-Nov-19 07:33N 33°40' W 118°03'0 0.1
2014-Nov-19 06:33N 33°40' W 118°03'0 0.1
2014-Nov-19 05:33N 33°40' W 118°03'6 6.3
2014-Nov-19 04:33N 33°43' W 118°09'6 5.9
2014-Nov-19 03:33N 33°44' W 118°16'5 4.9
2014-Nov-19 02:33N 33°41' W 118°12'8 7.9
2014-Nov-19 01:33N 33°40' W 118°03'0 0.1
2014-Nov-19 00:33N 33°40' W 118°03'0 0.1
2014-Nov-18 23:34N 33°40' W 118°03'0 0.0
2014-Nov-18 22:33N 33°40' W 118°03'0 0.1
2014-Nov-18 21:33N 33°40' W 118°03'0 0.0
2014-Nov-18 20:34N 33°40' W 118°03'0 0.1
2014-Nov-18 19:31N 33°40' W 118°03'0 0.0
2014-Nov-18 18:34N 33°40' W 118°03'0 0.0
2014-Nov-18 17:34N 33°40' W 118°03'7 6.8
2014-Nov-18 16:33N 33°43' W 118°10'5 5.3
2014-Nov-18 15:34N 33°44' W 118°16'0 0.0
2014-Nov-18 14:33N 33°44' W 118°16'9 8.2
2014-Nov-18 13:25N 33°41' W 118°06'3 3.2
2014-Nov-18 12:33N 33°40' W 118°03'0 0.1
2014-Nov-18 11:33N 33°40' W 118°03'0 0.0
2014-Nov-18 10:33N 33°40' W 118°03'0 0.0
2014-Nov-18 09:33N 33°40' W 118°03'0 0.1
2014-Nov-18 08:33N 33°40' W 118°03'4 3.5
2014-Nov-18 07:33N 33°41' W 118°07'9 8.5
2014-Nov-18 06:33N 33°44' W 118°16'0 0.1
2014-Nov-18 05:34N 33°44' W 118°16'0 0.1
2014-Nov-18 04:33N 33°44' W 118°16'0 0.0
2014-Nov-18 03:34N 33°44' W 118°16'0 0.0
2014-Nov-18 02:33N 33°44' W 118°16'0 0.0
2014-Nov-18 01:34N 33°44' W 118°16'0 0.1
2014-Nov-18 00:31N 33°44' W 118°16'0 0.0
2014-Nov-17 23:33N 33°44' W 118°16'1 0.7
2014-Nov-17 22:18N 33°43' W 118°16'7 8.9
2014-Nov-17 21:33N 33°40' W 118°09'5 5.2
2014-Nov-17 20:32N 33°40' W 118°03'0 0.0
2014-Nov-17 19:33N 33°40' W 118°03'0 0.0
2014-Nov-17 18:33N 33°40' W 118°03'0 0.1
2014-Nov-17 17:33N 33°40' W 118°03'  

Dump ship's entire track history